Terminal Aerodrome Forecast
Issued by NWS

Home | Current Version | Previous Version | Text Only | Print | Product List | Glossary On
Versions: 1 2 3 4 5 6 7 8 9 10 11 12
698
FTUS46 KSEW 171720
TAFPAE
TAF
KPAE 171720Z 1718/1818 16008KT P6SM -RA OVC050
     FM180000 16012KT P6SM -RA OVC030
     FM180600 18012G20KT 5SM RA BR OVC018
     FM181600 18012KT P6SM -RA BKN025 OVC040=

USA.gov is the U.S. government's official web portal to all federal, state and local government web resources and services.